createdAt,value
2022-12-26T00:01:09.541Z,7.31
2022-12-26T00:04:51.844Z,7.19
2022-12-26T00:07:33.134Z,7.11
2022-12-26T00:10:34.810Z,6.99
2022-12-26T00:13:39.195Z,6.99
2022-12-26T00:16:47.013Z,7.02
2022-12-26T00:19:48.827Z,7.03
2022-12-26T00:22:50.780Z,7.01
2022-12-26T00:25:56.550Z,6.99
2022-12-26T00:28:58.782Z,6.96
2022-12-26T00:32:03.673Z,6.86
2022-12-26T00:35:05.809Z,6.93
2022-12-26T00:38:07.860Z,6.88
2022-12-26T00:41:10.704Z,7.02
2022-12-26T00:44:12.422Z,6.96
2022-12-26T00:47:14.228Z,6.96
2022-12-26T00:50:16.287Z,6.95
2022-12-26T00:53:18.628Z,6.95
2022-12-26T00:56:20.330Z,6.93
2022-12-26T00:59:21.986Z,6.91
2022-12-26T01:02:38.927Z,6.79
2022-12-26T01:05:46.346Z,6.83
2022-12-26T01:08:48.146Z,6.90
2022-12-26T01:11:49.877Z,6.90
2022-12-26T01:14:51.573Z,6.92
2022-12-26T01:17:53.271Z,6.84
2022-12-26T01:21:00.229Z,6.76
2022-12-26T01:24:02.098Z,6.75
2022-12-26T01:27:03.856Z,6.78
2022-12-26T01:30:06.458Z,6.78
2022-12-26T01:33:08.129Z,6.78
2022-12-26T01:36:10.228Z,6.78
2022-12-26T01:39:11.993Z,6.82
2022-12-26T01:42:16.648Z,6.88
2022-12-26T01:45:26.330Z,6.87
2022-12-26T01:48:34.453Z,6.92
2022-12-26T01:51:40.591Z,7.06
2022-12-26T01:54:47.038Z,7.12
2022-12-26T01:57:56.006Z,7.14
2022-12-26T02:00:58.213Z,7.17
2022-12-26T02:04:23.435Z,7.17
2022-12-26T02:07:26.596Z,7.18
2022-12-26T02:10:31.481Z,7.16
2022-12-26T02:13:35.951Z,7.24
2022-12-26T02:16:39.046Z,7.27
2022-12-26T02:20:16.148Z,7.23
2022-12-26T02:23:37.309Z,7.29
2022-12-26T02:26:44.637Z,7.40
2022-12-26T02:30:13.680Z,7.34
2022-12-26T02:33:42.956Z,7.38
2022-12-26T02:37:03.466Z,7.40
2022-12-26T02:40:15.848Z,7.32
2022-12-26T02:43:31.210Z,7.36
2022-12-26T02:47:05.448Z,7.34
2022-12-26T02:50:41.004Z,7.33
2022-12-26T02:54:21.996Z,7.33
2022-12-26T02:57:49.080Z,7.40
2022-12-26T03:01:17.534Z,7.40
2022-12-26T03:04:40.585Z,7.32
2022-12-26T03:08:01.863Z,7.36
2022-12-26T03:11:22.584Z,7.29
2022-12-26T03:14:28.303Z,7.24
2022-12-26T03:17:59.429Z,7.33
2022-12-26T03:21:02.350Z,7.32
2022-12-26T03:24:05.731Z,7.34
2022-12-26T03:27:07.428Z,7.31
2022-12-26T03:30:28.289Z,7.26
2022-12-26T03:33:54.508Z,7.37
2022-12-26T03:37:08.639Z,7.37
2022-12-26T03:41:15.485Z,7.37
2022-12-26T03:44:54.230Z,7.37
2022-12-26T03:48:37.200Z,7.34
2022-12-26T03:52:15.526Z,7.37
2022-12-26T03:55:44.969Z,7.36
2022-12-26T03:59:12.500Z,7.38
2022-12-26T04:02:35.099Z,7.35
2022-12-26T04:05:58.566Z,7.24
2022-12-26T04:09:25.349Z,7.21
2022-12-26T04:12:48.239Z,7.16
2022-12-26T04:16:21.633Z,7.06
2022-12-26T04:19:32.253Z,6.97
2022-12-26T04:23:14.662Z,7.00
2022-12-26T04:26:43.649Z,6.89
2022-12-26T04:30:05.424Z,6.87
2022-12-26T04:33:35.687Z,6.83
2022-12-26T04:37:04.664Z,6.69
2022-12-26T04:40:30.952Z,6.70
2022-12-26T04:43:52.214Z,6.57
2022-12-26T04:46:55.965Z,6.66
2022-12-26T04:50:13.366Z,6.63
2022-12-26T04:53:15.277Z,6.62
2022-12-26T04:56:18.709Z,6.62
2022-12-26T04:59:22.183Z,6.59
2022-12-26T05:02:42.144Z,6.50
2022-12-26T05:06:05.229Z,6.62
2022-12-26T05:09:28.991Z,6.54
2022-12-26T05:12:30.824Z,6.53
2022-12-26T05:15:52.522Z,6.50
2022-12-26T05:19:12.540Z,6.51
2022-12-26T05:22:32.826Z,6.48
2022-12-26T05:26:00.072Z,6.44
2022-12-26T05:29:03.725Z,6.40
2022-12-26T05:32:05.409Z,6.40
2022-12-26T05:35:07.303Z,6.37
2022-12-26T05:38:11.020Z,6.44
2022-12-26T05:41:12.691Z,6.42
2022-12-26T05:44:14.498Z,6.44
2022-12-26T05:47:16.152Z,6.41
2022-12-26T05:50:17.861Z,6.41
2022-12-26T05:53:19.532Z,6.34
2022-12-26T05:56:21.657Z,6.35
2022-12-26T05:59:23.597Z,6.32
2022-12-26T06:02:25.292Z,6.21
2022-12-26T06:05:27.053Z,6.28
2022-12-26T06:08:29.282Z,6.27
2022-12-26T06:11:31.501Z,6.29
2022-12-26T06:14:33.281Z,6.26
2022-12-26T06:17:35.003Z,6.25
2022-12-26T06:20:39.756Z,6.21
2022-12-26T06:23:41.630Z,6.26
2022-12-26T06:26:43.317Z,6.28
2022-12-26T06:29:45.727Z,6.35
2022-12-26T06:32:47.397Z,6.30
2022-12-26T06:35:49.124Z,6.30
2022-12-26T06:38:50.923Z,6.28
2022-12-26T06:41:52.600Z,6.24
2022-12-26T06:44:54.220Z,6.27
2022-12-26T06:47:55.885Z,6.33
2022-12-26T06:50:57.674Z,6.30
2022-12-26T06:54:04.194Z,6.34
2022-12-26T06:57:05.852Z,6.38
2022-12-26T07:00:08.330Z,6.48
2022-12-26T07:03:10.839Z,6.59
2022-12-26T07:06:24.889Z,6.62
2022-12-26T07:09:33.191Z,6.66
2022-12-26T07:12:36.091Z,6.71
2022-12-26T07:15:38.303Z,6.79
2022-12-26T07:18:40.418Z,6.87
2022-12-26T07:21:42.740Z,6.98
2022-12-26T07:24:44.408Z,7.02
2022-12-26T07:27:46.058Z,7.02
2022-12-26T07:30:49.201Z,7.08
2022-12-26T07:33:53.255Z,7.14
2022-12-26T07:36:54.961Z,7.20
2022-12-26T07:39:59.248Z,7.21
2022-12-26T07:43:01.241Z,7.33
2022-12-26T07:46:02.923Z,7.38
2022-12-26T07:49:04.720Z,7.58
2022-12-26T07:52:06.482Z,7.78
2022-12-26T07:55:09.017Z,7.85
2022-12-26T07:58:10.790Z,8.15
2022-12-26T08:01:12.627Z,8.41
2022-12-26T08:04:14.741Z,8.43
2022-12-26T08:07:16.386Z,8.75
2022-12-26T08:10:18.159Z,8.90
2022-12-26T08:13:19.834Z,9.20
2022-12-26T08:16:21.560Z,9.74
2022-12-26T08:19:23.262Z,10.24
2022-12-26T08:22:25.519Z,10.68
2022-12-26T08:25:27.787Z,10.50
2022-12-26T08:28:29.500Z,10.76
2022-12-26T08:31:31.189Z,10.51
2022-12-26T08:34:36.047Z,10.34
2022-12-26T08:37:37.724Z,10.19
2022-12-26T08:40:43.953Z,10.08
2022-12-26T08:47:14.988Z,10.62
2022-12-26T08:50:17.121Z,10.68
2022-12-26T08:53:19.093Z,11.04
2022-12-26T08:56:24.850Z,10.91
2022-12-26T08:59:26.638Z,11.04
2022-12-26T09:02:28.371Z,11.14
2022-12-26T09:05:31.874Z,11.17
2022-12-26T09:08:35.305Z,11.33
2022-12-26T09:11:37.656Z,11.57
2022-12-26T09:14:39.371Z,11.69
2022-12-26T09:17:41.013Z,11.73
2022-12-26T09:20:42.910Z,12.09
2022-12-26T09:23:44.879Z,12.13
2022-12-26T09:26:46.766Z,12.22
2022-12-26T09:29:48.431Z,12.64
2022-12-26T09:32:50.279Z,13.24
2022-12-26T09:35:51.940Z,13.57
2022-12-26T09:38:56.152Z,13.76
2022-12-26T09:42:19.949Z,13.76
2022-12-26T09:45:37.248Z,14.29
2022-12-26T09:48:54.420Z,14.15
2022-12-26T09:52:00.425Z,14.28
2022-12-26T09:55:19.515Z,14.38
2022-12-26T09:58:32.182Z,14.21
2022-12-26T10:01:36.708Z,14.24
2022-12-26T10:04:38.551Z,14.57
2022-12-26T10:07:45.284Z,14.52
2022-12-26T10:10:57.183Z,14.45
2022-12-26T10:14:05.286Z,14.81
2022-12-26T10:17:28.220Z,15.30
2022-12-26T10:20:52.971Z,15.34
2022-12-26T10:24:20.610Z,15.01
2022-12-26T10:27:24.472Z,14.61
2022-12-26T10:30:33.990Z,14.60
2022-12-26T10:33:43.474Z,15.15
2022-12-26T10:36:52.833Z,15.48
2022-12-26T10:40:05.854Z,15.77
2022-12-26T10:43:28.949Z,16.10
2022-12-26T10:46:46.008Z,16.41
2022-12-26T10:49:49.340Z,16.71
2022-12-26T10:52:51.509Z,18.08
2022-12-26T10:55:53.213Z,18.90
2022-12-26T10:59:03.918Z,19.37
2022-12-26T11:02:28.198Z,19.64
2022-12-26T11:06:05.897Z,19.08
2022-12-26T11:08:51.916Z,18.41
2022-12-26T11:11:54.400Z,18.40
2022-12-26T11:15:31.157Z,19.64
2022-12-26T11:18:47.156Z,20.21
2022-12-26T11:21:48.873Z,20.13
2022-12-26T11:25:09.144Z,19.84
2022-12-26T11:28:23.879Z,19.79
2022-12-26T11:31:28.117Z,18.89
2022-12-26T11:34:34.623Z,19.15
2022-12-26T11:37:44.304Z,19.69
2022-12-26T11:41:11.767Z,19.00
2022-12-26T11:44:19.522Z,18.18
2022-12-26T11:47:25.593Z,17.86
2022-12-26T11:50:30.290Z,17.64
2022-12-26T11:53:34.569Z,17.56
2022-12-26T11:56:36.200Z,17.42
2022-12-26T11:59:38.183Z,17.02
2022-12-26T12:02:41.034Z,17.44
2022-12-26T12:05:46.173Z,18.00
2022-12-26T12:09:06.451Z,17.75
2022-12-26T12:12:35.812Z,17.90
2022-12-26T12:15:49.188Z,18.38
2022-12-26T12:18:59.227Z,19.02
2022-12-26T12:22:15.950Z,19.02
2022-12-26T12:25:38.041Z,19.17
2022-12-26T12:28:50.024Z,19.32
2022-12-26T12:32:18.590Z,19.51
2022-12-26T12:35:29.413Z,19.53
2022-12-26T12:38:54.698Z,20.41
2022-12-26T12:42:14.259Z,20.18
2022-12-26T12:45:36.615Z,19.94
2022-12-26T12:48:47.448Z,19.72
2022-12-26T12:52:13.112Z,19.73
2022-12-26T12:55:19.540Z,19.27
2022-12-26T12:58:33.224Z,18.50
2022-12-26T13:01:42.803Z,17.96
2022-12-26T13:04:53.531Z,17.83
2022-12-26T13:08:01.490Z,18.50
2022-12-26T13:11:06.036Z,18.49
2022-12-26T13:14:19.180Z,18.75
2022-12-26T13:17:27.523Z,19.33
2022-12-26T13:20:38.574Z,18.81
2022-12-26T13:24:19.372Z,18.56
2022-12-26T13:27:36.125Z,16.93
2022-12-26T13:30:38.760Z,16.36
2022-12-26T13:33:43.170Z,16.06
2022-12-26T13:36:47.719Z,15.87
2022-12-26T13:39:52.639Z,15.83
2022-12-26T13:43:42.449Z,15.64
2022-12-26T13:46:47.093Z,15.90
2022-12-26T13:49:49.212Z,15.78
2022-12-26T13:52:51.036Z,15.66
2022-12-26T13:56:04.565Z,15.87
2022-12-26T13:59:28.589Z,15.48
2022-12-26T14:03:20.066Z,15.08
2022-12-26T14:06:57.321Z,14.74
2022-12-26T14:10:07.466Z,14.62
2022-12-26T14:13:34.608Z,14.45
2022-12-26T14:16:54.622Z,14.19
2022-12-26T14:20:24.750Z,14.08
2022-12-26T14:24:07.294Z,13.92
2022-12-26T14:27:24.925Z,13.84
2022-12-26T14:30:54.470Z,13.66
2022-12-26T14:34:10.749Z,13.54
2022-12-26T14:37:30.627Z,13.46
2022-12-26T14:40:35.324Z,13.36
2022-12-26T14:43:41.345Z,13.21
2022-12-26T14:46:42.929Z,13.11
2022-12-26T14:49:44.962Z,12.99
2022-12-26T14:52:47.901Z,12.85
2022-12-26T14:56:03.692Z,12.79
2022-12-26T14:59:29.240Z,12.73
2022-12-26T15:02:34.369Z,12.56
2022-12-26T15:05:44.401Z,12.55
2022-12-26T15:09:29.151Z,12.42
2022-12-26T15:12:58.501Z,12.37
2022-12-26T15:16:17.085Z,12.24
2022-12-26T15:19:24.647Z,12.23
2022-12-26T15:23:13.583Z,12.21
2022-12-26T15:26:47.372Z,12.17
2022-12-26T15:29:51.860Z,12.09
2022-12-26T15:33:07.655Z,12.00
2022-12-26T15:36:40.324Z,12.01
2022-12-26T15:39:55.969Z,11.94
2022-12-26T15:43:25.133Z,11.84
2022-12-26T15:46:33.119Z,11.83
2022-12-26T15:49:50.078Z,11.84
2022-12-26T15:53:07.618Z,11.86
2022-12-26T15:56:41.360Z,11.80
2022-12-26T16:00:17.608Z,11.74
2022-12-26T16:03:42.819Z,11.56
2022-12-26T16:07:17.338Z,11.64
2022-12-26T16:10:25.039Z,11.55
2022-12-26T16:13:26.923Z,11.47
2022-12-26T16:16:28.715Z,11.46
2022-12-26T16:19:30.486Z,11.35
2022-12-26T16:22:43.983Z,11.29
2022-12-26T16:25:50.694Z,11.18
2022-12-26T16:28:54.207Z,11.10
2022-12-26T16:32:03.645Z,10.98
2022-12-26T16:35:07.139Z,10.96
2022-12-26T16:38:14.782Z,10.93
2022-12-26T16:41:25.000Z,10.79
2022-12-26T16:44:43.004Z,10.78
2022-12-26T16:47:45.653Z,10.66
2022-12-26T16:50:52.495Z,10.61
2022-12-26T16:53:54.158Z,10.55
2022-12-26T16:57:09.288Z,10.51
2022-12-26T17:00:17.958Z,10.50
2022-12-26T17:03:29.057Z,10.52
2022-12-26T17:06:34.844Z,10.44
2022-12-26T17:09:44.768Z,10.44
2022-12-26T17:12:47.763Z,10.46
2022-12-26T17:15:58.690Z,10.46
2022-12-26T17:19:16.692Z,10.48
2022-12-26T17:22:28.250Z,10.50
2022-12-26T17:25:33.393Z,10.48
2022-12-26T17:28:37.363Z,10.54
2022-12-26T17:31:41.836Z,10.52
2022-12-26T17:34:44.058Z,10.51
2022-12-26T17:37:49.487Z,10.56
2022-12-26T17:41:00.995Z,10.49
2022-12-26T17:44:02.636Z,10.39
2022-12-26T17:47:23.121Z,10.29
2022-12-26T17:50:31.066Z,10.32
2022-12-26T17:53:38.618Z,10.28
2022-12-26T17:56:40.258Z,10.19
2022-12-26T17:59:42.273Z,10.10
2022-12-26T18:02:44.044Z,10.05
2022-12-26T18:05:47.400Z,9.98
2022-12-26T18:08:49.102Z,9.91
2022-12-26T18:11:50.796Z,9.82
2022-12-26T18:14:57.678Z,9.85
2022-12-26T18:18:02.950Z,9.81
2022-12-26T18:21:07.672Z,9.80
2022-12-26T18:24:09.705Z,9.83
2022-12-26T18:27:22.662Z,9.83
2022-12-26T18:30:25.858Z,9.85
2022-12-26T18:33:27.534Z,9.80
2022-12-26T18:36:32.567Z,9.68
2022-12-26T18:39:34.419Z,9.67
2022-12-26T18:42:36.115Z,9.68
2022-12-26T18:45:38.382Z,9.69
2022-12-26T18:48:40.046Z,9.67
2022-12-26T18:51:41.741Z,9.66
2022-12-26T18:54:43.707Z,9.69
2022-12-26T18:57:45.444Z,9.73
2022-12-26T19:00:47.403Z,9.74
2022-12-26T19:03:49.524Z,9.77
2022-12-26T19:06:51.304Z,9.78
2022-12-26T19:09:55.620Z,9.85
2022-12-26T19:13:04.759Z,9.84
2022-12-26T19:16:07.773Z,9.90
2022-12-26T19:19:09.720Z,9.78
2022-12-26T19:22:11.588Z,9.86
2022-12-26T19:25:14.535Z,9.87
2022-12-26T19:28:16.360Z,9.84
2022-12-26T19:31:19.446Z,9.78
2022-12-26T19:34:23.195Z,9.75
2022-12-26T19:37:25.375Z,9.70
2022-12-26T19:40:27.127Z,9.63
2022-12-26T19:43:28.797Z,9.63
2022-12-26T19:46:30.454Z,9.60
2022-12-26T19:49:33.954Z,9.58
2022-12-26T19:52:37.950Z,9.55
2022-12-26T19:55:40.283Z,9.53
2022-12-26T19:58:42.731Z,9.48
2022-12-26T20:01:44.835Z,9.49
2022-12-26T20:04:46.836Z,9.51
2022-12-26T20:07:48.612Z,9.56
2022-12-26T20:10:51.933Z,9.51
2022-12-26T20:13:57.103Z,9.57
2022-12-26T20:17:05.629Z,9.58
2022-12-26T20:20:08.786Z,9.62
2022-12-26T20:23:10.487Z,9.61
2022-12-26T20:26:18.622Z,9.62
2022-12-26T20:29:20.326Z,9.63
2022-12-26T20:32:22.045Z,9.59
2022-12-26T20:35:23.680Z,9.65
2022-12-26T20:38:25.349Z,9.58
2022-12-26T20:41:28.503Z,9.64
2022-12-26T20:44:30.178Z,9.64
2022-12-26T20:47:31.947Z,9.62
2022-12-26T20:50:34.276Z,9.59
2022-12-26T20:53:36.199Z,9.57
2022-12-26T20:56:38.506Z,9.59
2022-12-26T20:59:40.189Z,9.55
2022-12-26T21:02:41.985Z,9.58
2022-12-26T21:05:44.293Z,9.57
2022-12-26T21:08:47.508Z,9.69
2022-12-26T21:11:49.248Z,9.72
2022-12-26T21:14:50.915Z,9.77
2022-12-26T21:17:52.904Z,9.80
2022-12-26T21:20:54.818Z,9.85
2022-12-26T21:24:05.479Z,9.84
2022-12-26T21:27:07.236Z,9.83
2022-12-26T21:30:09.649Z,9.84
2022-12-26T21:33:11.313Z,9.84
2022-12-26T21:36:14.288Z,9.81
2022-12-26T21:39:16.156Z,9.84
2022-12-26T21:42:18.022Z,9.87
2022-12-26T21:45:19.731Z,9.80
2022-12-26T21:48:21.603Z,9.86
2022-12-26T21:51:28.803Z,9.90
2022-12-26T21:54:49.587Z,9.85
2022-12-26T21:57:51.323Z,9.85
2022-12-26T22:00:53.012Z,9.78
2022-12-26T22:04:13.957Z,9.79
2022-12-26T22:07:15.706Z,9.82
2022-12-26T22:10:36.215Z,9.94
2022-12-26T22:13:41.273Z,9.86
2022-12-26T22:16:42.912Z,9.84
2022-12-26T22:19:44.670Z,9.82
2022-12-26T22:22:46.445Z,9.83
2022-12-26T22:25:55.340Z,9.81
2022-12-26T22:28:57.917Z,9.83
2022-12-26T22:32:00.095Z,9.90
2022-12-26T22:35:01.888Z,9.92
2022-12-26T22:38:03.583Z,10.00
2022-12-26T22:41:05.961Z,9.99
2022-12-26T22:44:08.312Z,10.07
2022-12-26T22:47:10.002Z,10.11
2022-12-26T22:50:16.181Z,10.13
2022-12-26T22:53:17.910Z,10.13
2022-12-26T22:56:19.617Z,10.13
2022-12-26T22:59:41.596Z,10.06
2022-12-26T23:02:43.907Z,10.03
2022-12-26T23:05:46.775Z,10.01
2022-12-26T23:08:50.462Z,9.98
2022-12-26T23:12:10.843Z,9.88
2022-12-26T23:15:22.380Z,9.80
2022-12-26T23:19:05.977Z,9.70
2022-12-26T23:22:07.860Z,9.64
2022-12-26T23:25:11.358Z,9.66
2022-12-26T23:28:31.393Z,9.61
2022-12-26T23:31:33.057Z,9.66
2022-12-26T23:34:34.980Z,9.67
2022-12-26T23:37:38.918Z,9.69
2022-12-26T23:40:40.650Z,9.78
2022-12-26T23:43:42.369Z,9.91
2022-12-26T23:46:47.179Z,10.02
2022-12-26T23:49:49.731Z,10.11
2022-12-26T23:52:51.397Z,10.11
2022-12-26T23:55:53.253Z,10.12
2022-12-26T23:58:55.683Z,10.16
